Welcome to Boston ARTCC, where excellence is served daily with a cup of MOCHA HAGoTDI


Whether you are a pilot, controller, or a little of both; ZBW is the premier airspace in VATSIM

News

Real-World Impact of VATSIM Controllers

Congratulations to one of our controllers at vZBW ARTCC, Erik Partridge (PG), for catching yet another error on an update of the RNAV arrival into KPWM.  In his honor the FAA has issued this NOTAM:

!FDC 4/1894 PWM CHART PORTLAND INTL JETPORT, PORTLAND, ME. SCOGS TWO ARRIVAL (RNAV) (SCOGS.SCOGS2) ... CORRECT WAYPOINT NAME: CHANGE SPELLING OF ARRAR TO ARARR. 1410231211-PERM


VATSIM has real-world impacts everyday!

2 days ago

ZBW Website NOTAM

Attention ZBW Controllers (and TS3 visitors):


Please update your settings to reflect the host as "bostonartcc.net" instead of "ts3.bostonartcc.net". Due to what appears to be local DNS caching issues, the old ts3 subdomain will no longer respond.


Please note that all email addresses are the same post-migration, however you may also elect to contact staff members through the roster.


Student Controllers

Please use the training center to request training sessions. This will provide a direct link for staff members to more easily monitor and manage training sessions.

1 month ago

ATC Online

Controller Position Frequency Sign-On
No controllers currently online.

Air Traffic

Inbound: 4 Outbound: 3 View All

AAL546 KMIA PADUS1 PADUS BR66V ... VS1 HTO INNDY2 Gabriel Hernandez KJFK
H/B772/Q KBOS 310 ETE: 3 hours
DAL2368 KATL DAWGS7 SPA J14 ... J222 JFK KRANN3 Charles Hritz KHGR
B738/Q KBOS FL330 ETE: 2 hours
DAL814 KMCO ATLAS MLB LENDS ... PVD FILYP KRANN Rafael Serra LEPP
A320 KBOS 39000 ETE: 2 hours
TOM2997 EGCC WAL L10 PENIL ... CYMON ALLEX SCUPP Brian Caldwell-EGNX
B/B763/F KBOS FL360 ETE: under 1 hour
AA530 KBOS HYLND3 HYLND SYR ... ROC V510 EHMAN Albert Zeng ZGNN
H/A319 KBUF 36000 ETE: 1 hours

Weather parsed

KBOS 301554Z 27009KT 10SM FEW045 SCT120 SCT200 14/04 A2992 RMK AO2 SLP132 T01390039

KMHT 301553Z 35012G16KT 10SM FEW040 BKN075 BKN150 12/03 A2991 RMK AO2 SLP141 T01220033

KBDL 301551Z 32008KT 10SM BKN040 BKN075 13/03 A2996 RMK AO2 SLP146 T01280028

KPVD 301551Z 31012KT 10SM FEW050 FEW070 SCT250 14/03 A2994 RMK AO2 SLP139 T01440028